Mineral Wells, Texas
Current Conditions -  °F | °C
As of 9:53 AM on Wednesday 26 Nov 2014 (Local Time) from KMWL Reporting Station
Clear Clear  
Wind Chill: 53°   Ceiling: Unl
Heat Index: 53°   Visibility: 10mi
Dew Point: 27°   Wind: 17mph
Humidity: 37%   Direction: 330°NNW
Pressure: 30.16"   Gusts: NA
Location:  32.81°N, 98.07°W
Report Text: KMWL 261553Z AUTO 33015KT 10SM CLR 12/M03 A3016 RMK AO2 RAB35E51 SLP213 P0000 T01171028 $
Loading
Personal Weather Stations






























Interactive Weather Map New forecast layout! Learn more

10-Day Weather Forecast

Advertisements
Track Severe Weather on mobile